createdAt,value
2023-03-03T00:00:36.397Z,96230.78
2023-03-03T00:01:38.581Z,96223.16
2023-03-03T00:02:43.863Z,96223.16
2023-03-03T00:03:48.958Z,96223.16
2023-03-03T00:04:54.010Z,96231.63
2023-03-03T00:05:56.355Z,96229.94
2023-03-03T00:07:01.420Z,96221.44
2023-03-03T00:08:04.555Z,96229.94
2023-03-03T00:09:10.035Z,96230.78
2023-03-03T00:10:13.635Z,96228.22
2023-03-03T00:11:18.732Z,96231.59
2023-03-03T00:12:25.000Z,96230.75
2023-03-03T00:13:32.607Z,96233.31
2023-03-03T00:14:35.097Z,96234.16
2023-03-03T00:15:40.143Z,96227.41
2023-03-03T00:16:43.265Z,96229.06
2023-03-03T00:17:51.682Z,96235.84
2023-03-03T00:19:01.448Z,96235.00
2023-03-03T00:20:29.239Z,96231.63
2023-03-03T00:21:35.831Z,96232.47
2023-03-03T00:22:38.535Z,96225.72
2023-03-03T00:25:21.994Z,96230.78
2023-03-03T00:26:38.376Z,96233.34
2023-03-03T00:27:40.656Z,96233.34
2023-03-03T00:28:50.149Z,96239.25
2023-03-03T00:29:54.610Z,96240.09
2023-03-03T00:31:04.013Z,96240.09
2023-03-03T00:32:23.230Z,96235.84
2023-03-03T00:33:32.740Z,96246.03
2023-03-03T00:34:37.910Z,96235.00
2023-03-03T00:35:43.402Z,96243.47
2023-03-03T00:36:47.510Z,96246.03
2023-03-03T00:37:57.786Z,96246.88
2023-03-03T00:39:19.620Z,96243.50
2023-03-03T00:40:27.325Z,96240.06
2023-03-03T00:41:29.769Z,96238.41
2023-03-03T00:42:38.947Z,96236.72
2023-03-03T00:43:41.650Z,96234.16
2023-03-03T00:44:49.023Z,96235.00
2023-03-03T00:45:53.001Z,96234.16
2023-03-03T00:46:59.954Z,96238.38
2023-03-03T00:48:17.332Z,96242.63
2023-03-03T00:49:31.834Z,96235.84
2023-03-03T00:50:44.035Z,96238.38
2023-03-03T00:51:49.559Z,96234.16
2023-03-03T00:53:01.550Z,96237.53
2023-03-03T00:54:06.620Z,96237.53
2023-03-03T00:55:09.442Z,96234.13
2023-03-03T00:56:14.974Z,96232.47
2023-03-03T00:57:17.357Z,96233.31
2023-03-03T00:58:24.406Z,96232.47
2023-03-03T00:59:27.005Z,96229.91
2023-03-03T01:00:34.159Z,96234.16
2023-03-03T01:01:36.710Z,96235.84
2023-03-03T01:02:47.064Z,96230.75
2023-03-03T01:03:53.421Z,96238.41
2023-03-03T01:04:56.669Z,96229.91
2023-03-03T01:06:04.298Z,96235.00
2023-03-03T01:07:06.657Z,96228.22
2023-03-03T01:08:11.999Z,96229.06
2023-03-03T01:09:14.513Z,96226.56
2023-03-03T01:10:19.910Z,96228.22
2023-03-03T01:11:25.358Z,96226.53
2023-03-03T01:12:30.656Z,96218.06
2023-03-03T01:13:37.737Z,96218.91
2023-03-03T01:14:43.938Z,96225.69
2023-03-03T01:15:49.051Z,96218.06
2023-03-03T01:16:51.602Z,96229.91
2023-03-03T01:17:59.299Z,96219.78
2023-03-03T01:19:01.771Z,96221.44
2023-03-03T01:20:08.691Z,96224.84
2023-03-03T01:21:17.131Z,96224.00
2023-03-03T01:22:19.688Z,96222.31
2023-03-03T01:23:25.332Z,96219.75
2023-03-03T01:24:30.597Z,96220.59
2023-03-03T01:25:35.962Z,96224.84
2023-03-03T01:26:38.336Z,96225.69
2023-03-03T01:27:45.182Z,96233.31
2023-03-03T01:28:47.497Z,96227.41
2023-03-03T01:29:52.505Z,96229.91
2023-03-03T01:30:58.213Z,96231.63
2023-03-03T01:32:00.547Z,96228.22
2023-03-03T01:33:05.959Z,96223.16
2023-03-03T01:34:08.627Z,96223.16
2023-03-03T01:35:13.804Z,96221.47
2023-03-03T01:36:24.252Z,96216.38
2023-03-03T01:37:29.789Z,96221.47
2023-03-03T01:38:32.402Z,96224.84
2023-03-03T01:39:37.602Z,96217.22
2023-03-03T01:40:40.116Z,96219.78
2023-03-03T01:41:45.976Z,96214.72
2023-03-03T01:42:48.370Z,96216.38
2023-03-03T01:43:55.956Z,96219.78
2023-03-03T01:45:17.248Z,96216.38
2023-03-03T01:46:40.103Z,96224.03
2023-03-03T01:47:47.986Z,96216.38
2023-03-03T01:48:55.011Z,96226.53
2023-03-03T01:50:03.785Z,96224.84
2023-03-03T01:51:14.691Z,96220.63
2023-03-03T01:52:28.017Z,96224.00
2023-03-03T01:53:40.259Z,96222.31
2023-03-03T01:54:46.038Z,96218.91
2023-03-03T01:55:53.315Z,96214.69
2023-03-03T01:56:59.877Z,96213.81
2023-03-03T01:58:09.017Z,96213.84
2023-03-03T01:59:16.886Z,96201.97
2023-03-03T02:00:24.006Z,96207.91
2023-03-03T02:01:28.998Z,96201.13
2023-03-03T02:02:35.552Z,96201.09
2023-03-03T02:03:37.966Z,96201.09
2023-03-03T02:04:43.488Z,96206.19
2023-03-03T02:05:45.970Z,96206.19
2023-03-03T02:06:55.608Z,96202.81
2023-03-03T02:08:01.654Z,96203.66
2023-03-03T02:09:14.933Z,96197.72
2023-03-03T02:10:20.106Z,96202.81
2023-03-03T02:11:25.772Z,96196.03
2023-03-03T02:12:34.240Z,96191.78
2023-03-03T02:13:39.374Z,96188.38
2023-03-03T02:14:41.851Z,96194.28
2023-03-03T02:15:47.202Z,96201.09
2023-03-03T02:16:49.523Z,96192.59
2023-03-03T02:17:58.148Z,96193.44
2023-03-03T02:19:00.651Z,96186.66
2023-03-03T02:20:16.171Z,96188.34
2023-03-03T02:21:21.159Z,96190.88
2023-03-03T02:22:36.093Z,96187.50
2023-03-03T02:23:50.597Z,96191.72
2023-03-03T02:25:00.398Z,96192.56
2023-03-03T02:26:16.800Z,96193.38
2023-03-03T02:27:22.063Z,96187.41
2023-03-03T02:28:27.176Z,96183.16
2023-03-03T02:29:32.365Z,96194.19
2023-03-03T02:30:38.165Z,96189.94
2023-03-03T02:31:44.384Z,96183.13
2023-03-03T02:32:46.775Z,96186.53
2023-03-03T02:33:55.300Z,96179.69
2023-03-03T02:34:57.463Z,96179.69
2023-03-03T02:36:02.974Z,96189.84
2023-03-03T02:37:05.450Z,96183.06
2023-03-03T02:38:20.722Z,96177.13
2023-03-03T02:39:25.552Z,96180.50
2023-03-03T02:40:36.848Z,96177.94
2023-03-03T02:41:47.343Z,96178.78
2023-03-03T02:42:56.589Z,96180.47
2023-03-03T02:44:01.938Z,96179.59
2023-03-03T02:45:07.305Z,96170.25
2023-03-03T02:46:09.518Z,96177.88
2023-03-03T02:47:14.633Z,96182.97
2023-03-03T02:48:16.868Z,96182.97
2023-03-03T02:49:24.196Z,96179.53
2023-03-03T02:50:26.509Z,96174.47
2023-03-03T02:51:31.445Z,96181.25
2023-03-03T02:52:33.790Z,96178.66
2023-03-03T02:53:39.139Z,96182.06
2023-03-03T02:54:41.596Z,96182.06
2023-03-03T02:55:49.139Z,96180.34
2023-03-03T02:56:54.812Z,96188.81
2023-03-03T02:58:02.000Z,96187.09
2023-03-03T02:59:04.473Z,96190.44
2023-03-03T03:00:11.455Z,96191.28
2023-03-03T03:01:13.867Z,96196.34
2023-03-03T03:02:19.847Z,96191.22
2023-03-03T03:03:22.237Z,96190.34
2023-03-03T03:04:29.297Z,96189.47
2023-03-03T03:05:31.643Z,96192.03
2023-03-03T03:06:39.824Z,96195.44
2023-03-03T03:07:42.320Z,96191.22
2023-03-03T03:08:47.430Z,96197.16
2023-03-03T03:09:50.523Z,96196.28
2023-03-03T03:10:57.419Z,96191.19
2023-03-03T03:12:02.930Z,96194.56
2023-03-03T03:13:08.079Z,96193.69
2023-03-03T03:14:12.572Z,96192.88
2023-03-03T03:15:18.178Z,96196.25
2023-03-03T03:16:20.880Z,96194.53
2023-03-03T03:17:25.918Z,96193.72
2023-03-03T03:18:29.169Z,96190.28
2023-03-03T03:19:34.294Z,96189.44
2023-03-03T03:20:37.548Z,96186.84
2023-03-03T03:21:43.032Z,96186.84
2023-03-03T03:22:45.672Z,96192.75
2023-03-03T03:23:53.150Z,96200.34
2023-03-03T03:24:55.587Z,96192.72
2023-03-03T03:26:01.374Z,96197.81
2023-03-03T03:27:09.358Z,96198.69
2023-03-03T03:28:12.735Z,96194.44
2023-03-03T03:29:18.743Z,96189.34
2023-03-03T03:30:21.007Z,96197.84
2023-03-03T03:31:26.718Z,96198.69
2023-03-03T03:32:29.576Z,96196.94
2023-03-03T03:33:35.092Z,96199.47
2023-03-03T03:34:37.523Z,96202.03
2023-03-03T03:35:46.031Z,96202.03
2023-03-03T03:36:48.552Z,96196.06
2023-03-03T03:37:54.334Z,96199.44
2023-03-03T03:38:57.002Z,96191.75
2023-03-03T03:40:02.072Z,96196.00
2023-03-03T03:41:06.057Z,96192.59
2023-03-03T03:42:13.969Z,96196.00
2023-03-03T03:43:16.579Z,96197.69
2023-03-03T03:44:22.162Z,96197.69
2023-03-03T03:45:24.734Z,96198.53
2023-03-03T03:46:30.492Z,96199.38
2023-03-03T03:47:32.724Z,96200.25
2023-03-03T03:48:38.789Z,96198.53
2023-03-03T03:49:41.549Z,96199.38
2023-03-03T03:50:46.600Z,96191.69
2023-03-03T03:51:48.890Z,96195.97
2023-03-03T03:52:54.069Z,96195.13
2023-03-03T03:53:56.356Z,96199.38
2023-03-03T03:55:06.287Z,96202.81
2023-03-03T03:56:08.817Z,96193.47
2023-03-03T03:57:18.680Z,96190.94
2023-03-03T03:58:21.248Z,96194.34
2023-03-03T03:59:26.817Z,96198.63
2023-03-03T04:00:29.217Z,96191.00
2023-03-03T04:01:34.020Z,96194.41
2023-03-03T04:02:36.676Z,96192.72
2023-03-03T04:03:41.647Z,96188.50
2023-03-03T04:04:43.805Z,96194.47
2023-03-03T04:05:49.012Z,96193.63
2023-03-03T04:06:52.081Z,96191.09
2023-03-03T04:07:57.494Z,96203.00
2023-03-03T04:08:59.782Z,96195.38
2023-03-03T04:10:05.081Z,96198.81
2023-03-03T04:11:07.614Z,96198.00
2023-03-03T04:12:16.508Z,96200.56
2023-03-03T04:13:18.793Z,96194.59
2023-03-03T04:14:23.689Z,96205.66
2023-03-03T04:15:26.112Z,96201.44
2023-03-03T04:16:33.806Z,96203.19
2023-03-03T04:17:36.095Z,96206.56
2023-03-03T04:18:41.263Z,96206.59
2023-03-03T04:19:43.821Z,96207.41
2023-03-03T04:20:49.423Z,96207.41
2023-03-03T04:21:52.349Z,96206.56
2023-03-03T04:22:57.530Z,96205.75
2023-03-03T04:24:00.034Z,96209.16
2023-03-03T04:25:05.991Z,96212.53
2023-03-03T04:26:08.485Z,96210.84
2023-03-03T04:27:16.326Z,96207.50
2023-03-03T04:28:18.586Z,96209.19
2023-03-03T04:29:24.325Z,96208.34
2023-03-03T04:30:27.766Z,96213.44
2023-03-03T04:31:33.092Z,96210.91
2023-03-03T04:32:38.488Z,96211.72
2023-03-03T04:33:46.104Z,96204.97
2023-03-03T04:34:53.128Z,96206.63
2023-03-03T04:36:03.695Z,96209.19
2023-03-03T04:37:08.632Z,96208.34
2023-03-03T04:38:10.899Z,96210.91
2023-03-03T04:39:18.047Z,96210.06
2023-03-03T04:40:20.633Z,96210.91
2023-03-03T04:41:28.656Z,96208.38
2023-03-03T04:42:34.330Z,96205.84
2023-03-03T04:43:39.291Z,96199.88
2023-03-03T04:44:41.693Z,96203.28
2023-03-03T04:45:47.491Z,96201.56
2023-03-03T04:46:49.638Z,96206.66
2023-03-03T04:47:54.673Z,96209.19
2023-03-03T04:48:57.092Z,96210.94
2023-03-03T04:50:02.119Z,96207.53
2023-03-03T04:51:04.861Z,96210.09
2023-03-03T04:52:10.292Z,96212.63
2023-03-03T04:53:12.653Z,96221.13
2023-03-03T04:54:18.740Z,96210.06
2023-03-03T04:55:20.939Z,96221.06
2023-03-03T04:56:25.991Z,96219.38
2023-03-03T04:57:28.315Z,96221.03
2023-03-03T04:58:36.030Z,96224.44
2023-03-03T04:59:38.587Z,96219.34
2023-03-03T05:00:43.483Z,96220.16
2023-03-03T05:01:46.798Z,96220.16
2023-03-03T05:02:53.224Z,96223.56
2023-03-03T05:03:55.785Z,96226.06
2023-03-03T05:05:00.748Z,96228.56
2023-03-03T05:06:03.007Z,96222.66
2023-03-03T05:07:08.467Z,96226.91
2023-03-03T05:08:10.757Z,96230.28
2023-03-03T05:09:16.640Z,96228.63
2023-03-03T05:10:19.283Z,96227.78
2023-03-03T05:11:24.552Z,96231.16
2023-03-03T05:12:27.725Z,96229.47
2023-03-03T05:13:36.253Z,96225.25
2023-03-03T05:14:38.753Z,96226.94
2023-03-03T05:15:43.749Z,96227.81
2023-03-03T05:16:46.278Z,96221.88
2023-03-03T05:17:53.668Z,96227.84
2023-03-03T05:18:55.957Z,96232.13
2023-03-03T05:20:01.745Z,96231.28
2023-03-03T05:21:04.792Z,96231.28
2023-03-03T05:22:11.184Z,96227.88
2023-03-03T05:23:13.434Z,96224.50
2023-03-03T05:24:18.662Z,96229.56
2023-03-03T05:25:22.711Z,96231.28
2023-03-03T05:26:27.854Z,96232.94
2023-03-03T05:27:30.147Z,96236.34
2023-03-03T05:28:37.999Z,96234.66
2023-03-03T05:29:40.395Z,96232.09
2023-03-03T05:30:45.519Z,96239.75
2023-03-03T05:31:47.822Z,96238.03
2023-03-03T05:32:52.847Z,96231.22
2023-03-03T05:33:55.423Z,96230.41
2023-03-03T05:35:00.887Z,96227.88
2023-03-03T05:36:11.420Z,96232.13
2023-03-03T05:37:16.551Z,96233.81
2023-03-03T05:38:18.711Z,96232.97
2023-03-03T05:39:23.980Z,96243.97
2023-03-03T05:40:29.297Z,96243.09
2023-03-03T05:41:37.147Z,96244.78
2023-03-03T05:42:39.486Z,96243.94
2023-03-03T05:43:49.301Z,96235.44
2023-03-03T05:44:51.471Z,96244.78
2023-03-03T05:45:59.124Z,96248.16
2023-03-03T05:47:01.404Z,96237.97
2023-03-03T05:48:06.601Z,96242.22
2023-03-03T05:49:09.203Z,96251.50
2023-03-03T05:50:15.272Z,96246.44
2023-03-03T05:51:17.562Z,96253.25
2023-03-03T05:52:22.510Z,96254.94
2023-03-03T05:53:24.796Z,96256.63
2023-03-03T05:54:29.789Z,96258.31
2023-03-03T05:55:32.065Z,96260.00
2023-03-03T05:56:37.513Z,96260.81
2023-03-03T05:57:39.697Z,96254.88
2023-03-03T05:58:48.443Z,96260.81
2023-03-03T05:59:50.918Z,96255.72
2023-03-03T06:00:56.213Z,96259.13
2023-03-03T06:01:58.732Z,96254.88
2023-03-03T06:03:04.047Z,96259.94
2023-03-03T06:04:06.407Z,96258.25
2023-03-03T06:05:12.679Z,96257.41
2023-03-03T06:06:17.536Z,96259.06
2023-03-03T06:07:22.751Z,96259.06
2023-03-03T06:08:28.076Z,96265.00
2023-03-03T06:09:30.403Z,96255.63
2023-03-03T06:10:35.666Z,96264.97
2023-03-03T06:11:37.908Z,96253.13
2023-03-03T06:12:42.752Z,96254.84
2023-03-03T06:13:47.976Z,96265.06
2023-03-03T06:14:55.320Z,96268.44
2023-03-03T06:15:57.473Z,96264.19
2023-03-03T06:17:02.466Z,96271.81
2023-03-03T06:18:05.232Z,96270.94
2023-03-03T06:19:10.330Z,96272.63
2023-03-03T06:20:12.543Z,96274.28
2023-03-03T06:21:17.554Z,96281.91
2023-03-03T06:22:19.637Z,96268.34
2023-03-03T06:23:25.863Z,96275.94
2023-03-03T06:24:31.838Z,96281.00
2023-03-03T06:25:39.898Z,96274.22
2023-03-03T06:26:45.262Z,96272.50
2023-03-03T06:27:47.577Z,96281.00
2023-03-03T06:28:55.940Z,96277.56
2023-03-03T06:29:58.514Z,96275.91
2023-03-03T06:31:03.552Z,96282.69
2023-03-03T06:32:08.756Z,96279.28
2023-03-03T06:33:11.392Z,96280.97
2023-03-03T06:34:16.156Z,96280.13
2023-03-03T06:35:18.534Z,96279.25
2023-03-03T06:36:25.707Z,96284.34
2023-03-03T06:37:27.813Z,96285.19
2023-03-03T06:38:32.804Z,96275.00
2023-03-03T06:39:35.154Z,96285.22
2023-03-03T06:40:40.625Z,96280.91
2023-03-03T06:41:42.840Z,96281.75
2023-03-03T06:42:47.750Z,96289.38
2023-03-03T06:43:53.176Z,96284.25
2023-03-03T06:44:58.453Z,96295.31
2023-03-03T06:46:00.818Z,96297.81
2023-03-03T06:47:06.433Z,96296.97
2023-03-03T06:48:08.576Z,96296.13
2023-03-03T06:49:13.812Z,96296.09
2023-03-03T06:50:22.159Z,96294.44
2023-03-03T06:51:27.071Z,96295.28
2023-03-03T06:52:32.077Z,96295.22
2023-03-03T06:53:35.085Z,96291.00
2023-03-03T06:54:39.951Z,96294.41
2023-03-03T06:55:45.823Z,96295.25
2023-03-03T06:56:49.974Z,96302.06
2023-03-03T06:57:56.461Z,96296.97
2023-03-03T06:59:04.799Z,96302.84
2023-03-03T07:00:20.304Z,96302.00
2023-03-03T07:01:22.687Z,96310.53
2023-03-03T07:02:27.548Z,96303.75
2023-03-03T07:03:34.836Z,96305.44
2023-03-03T07:04:39.764Z,96310.56
2023-03-03T07:05:42.517Z,96303.75
2023-03-03T07:06:47.777Z,96307.97
2023-03-03T07:07:49.885Z,96305.47
2023-03-03T07:08:58.057Z,96304.59
2023-03-03T07:10:01.235Z,96302.03
2023-03-03T07:11:15.369Z,96302.88
2023-03-03T07:12:23.101Z,96306.31
2023-03-03T07:13:30.578Z,96304.59
2023-03-03T07:14:44.101Z,96306.28
2023-03-03T07:15:50.214Z,96301.97
2023-03-03T07:16:59.631Z,96313.84
2023-03-03T07:18:02.835Z,96311.28
2023-03-03T07:19:08.926Z,96305.25
2023-03-03T07:20:19.445Z,96309.44
2023-03-03T07:21:26.780Z,96312.81
2023-03-03T07:22:31.276Z,96313.59
2023-03-03T07:23:42.922Z,96316.06
2023-03-03T07:24:46.334Z,96319.38
2023-03-03T07:25:51.551Z,96316.72
2023-03-03T07:26:58.012Z,96315.81
2023-03-03T07:28:16.521Z,96315.72
2023-03-03T07:29:24.042Z,96313.03
2023-03-03T07:30:33.041Z,96316.34
2023-03-03T07:31:38.008Z,96317.09
2023-03-03T07:32:47.379Z,96311.91
2023-03-03T07:33:49.681Z,96318.63
2023-03-03T07:34:57.377Z,96326.16
2023-03-03T07:36:01.267Z,96317.53
2023-03-03T07:37:13.850Z,96314.78
2023-03-03T07:38:23.460Z,96314.66
2023-03-03T07:39:40.159Z,96311.09
2023-03-03T07:40:48.341Z,96316.88
2023-03-03T07:41:53.725Z,96304.84
2023-03-03T07:42:55.751Z,96308.19
2023-03-03T07:44:07.382Z,96307.25
2023-03-03T07:45:24.891Z,96313.84
2023-03-03T07:46:44.297Z,96309.59
2023-03-03T07:47:46.501Z,96310.44
2023-03-03T07:48:51.559Z,96316.09
2023-03-03T07:49:59.921Z,96315.88
2023-03-03T07:51:10.885Z,96319.50
2023-03-03T07:52:35.059Z,96316.00
2023-03-03T07:53:38.560Z,96315.72
2023-03-03T07:54:46.870Z,96309.50
2023-03-03T07:55:50.109Z,96315.41
2023-03-03T07:56:55.528Z,96312.63
2023-03-03T07:58:06.312Z,96315.00
2023-03-03T07:59:22.422Z,96308.78
2023-03-03T08:00:57.430Z,96322.81
2023-03-03T08:02:38.050Z,96325.75
2023-03-03T08:03:49.594Z,96325.16
2023-03-03T08:04:54.967Z,96318.81
2023-03-03T08:05:57.172Z,96319.31
2023-03-03T08:07:03.535Z,96313.91
2023-03-03T08:08:20.011Z,96322.13
2023-03-03T08:09:40.921Z,96319.25
2023-03-03T08:10:52.520Z,96311.50
2023-03-03T08:11:55.994Z,96315.47
2023-03-03T08:13:04.859Z,96312.69
2023-03-03T08:14:11.403Z,96316.69
2023-03-03T08:15:28.465Z,96327.97
2023-03-03T08:16:40.460Z,96320.00
2023-03-03T08:17:43.736Z,96321.63
2023-03-03T08:18:53.541Z,96321.81
2023-03-03T08:19:56.321Z,96322.56
2023-03-03T08:21:04.457Z,96317.59
2023-03-03T08:22:14.004Z,96319.28
2023-03-03T08:23:20.661Z,96312.69
2023-03-03T08:24:22.720Z,96314.44
2023-03-03T08:25:29.224Z,96307.06
2023-03-03T08:26:34.425Z,96306.69
2023-03-03T08:27:36.676Z,96305.25
2023-03-03T08:28:42.032Z,96303.25
2023-03-03T08:29:44.324Z,96299.28
2023-03-03T08:30:49.991Z,96298.19
2023-03-03T08:31:52.133Z,96294.63
2023-03-03T08:32:57.562Z,96286.63
2023-03-03T08:34:05.840Z,96288.72
2023-03-03T08:35:09.022Z,96287.88
2023-03-03T08:36:14.448Z,96297.00
2023-03-03T08:37:16.704Z,96288.75
2023-03-03T08:38:24.197Z,96294.72
2023-03-03T08:39:26.512Z,96284.84
2023-03-03T08:40:31.567Z,96289.16
2023-03-03T08:41:36.702Z,96283.47
2023-03-03T08:42:38.873Z,96298.59
2023-03-03T08:43:45.592Z,96295.88
2023-03-03T08:44:47.799Z,96297.94
2023-03-03T08:45:54.314Z,96293.69
2023-03-03T08:46:56.816Z,96300.59
2023-03-03T08:48:05.630Z,96299.63
2023-03-03T08:49:10.852Z,96300.84
2023-03-03T08:50:17.214Z,96299.03
2023-03-03T08:51:22.379Z,96308.47
2023-03-03T08:52:24.384Z,96311.41
2023-03-03T08:53:29.434Z,96308.06
2023-03-03T08:54:31.861Z,96307.19
2023-03-03T08:55:37.186Z,96311.00
2023-03-03T08:56:39.378Z,96316.28
2023-03-03T08:57:44.406Z,96322.66
2023-03-03T08:59:01.603Z,96322.19
2023-03-03T09:00:08.252Z,96314.44
2023-03-03T09:01:13.745Z,96312.81
2023-03-03T09:02:18.042Z,96321.41
2023-03-03T09:03:23.249Z,96313.69
2023-03-03T09:04:28.129Z,96326.06
2023-03-03T09:05:33.746Z,96323.56
2023-03-03T09:06:37.978Z,96326.19
2023-03-03T09:07:47.613Z,96328.72
2023-03-03T09:08:50.569Z,96330.59
2023-03-03T09:09:55.523Z,96317.72
2023-03-03T09:11:03.217Z,96325.59
2023-03-03T09:12:14.850Z,96324.03
2023-03-03T09:13:20.635Z,96322.22
2023-03-03T09:14:22.832Z,96322.97
2023-03-03T09:15:29.371Z,96327.88
2023-03-03T09:16:40.985Z,96330.81
2023-03-03T09:17:45.138Z,96328.41
2023-03-03T09:18:51.252Z,96328.41
2023-03-03T09:19:58.171Z,96316.25
2023-03-03T09:21:03.165Z,96321.97
2023-03-03T09:22:19.997Z,96334.31
2023-03-03T09:23:33.902Z,96325.75
2023-03-03T09:24:39.772Z,96329.66
2023-03-03T09:25:42.411Z,96328.81
2023-03-03T09:26:53.428Z,96339.41
2023-03-03T09:27:55.737Z,96332.72
2023-03-03T09:29:18.754Z,96334.28
2023-03-03T09:30:34.827Z,96336.28
2023-03-03T09:31:43.300Z,96332.25
2023-03-03T09:32:46.283Z,96337.50
2023-03-03T09:33:55.418Z,96340.97
2023-03-03T09:35:02.499Z,96342.94
2023-03-03T09:36:22.292Z,96336.53
2023-03-03T09:37:32.642Z,96332.03
2023-03-03T09:38:41.005Z,96338.59
2023-03-03T09:39:47.730Z,96338.13
2023-03-03T09:41:05.091Z,96347.00
2023-03-03T09:42:48.856Z,96328.66
2023-03-03T09:44:01.993Z,96345.53
2023-03-03T09:45:42.565Z,96334.81
2023-03-03T09:47:01.926Z,96336.81
2023-03-03T09:48:23.268Z,96337.38
2023-03-03T09:49:35.972Z,96337.38
2023-03-03T09:50:49.255Z,96336.72
2023-03-03T09:52:16.969Z,96342.84
2023-03-03T09:53:35.331Z,96343.59
2023-03-03T09:54:54.490Z,96330.28
2023-03-03T09:56:07.028Z,96338.06
2023-03-03T09:57:15.011Z,96338.75
2023-03-03T09:58:37.756Z,96339.88
2023-03-03T10:00:12.601Z,96341.53
2023-03-03T10:01:36.179Z,96340.03
2023-03-03T10:02:53.151Z,96334.91
2023-03-03T10:04:37.187Z,96334.75
2023-03-03T10:05:54.845Z,96335.38
2023-03-03T10:07:20.774Z,96335.84
2023-03-03T10:08:40.277Z,96340.88
2023-03-03T10:10:00.385Z,96333.56
2023-03-03T10:11:13.979Z,96333.88
2023-03-03T10:12:29.852Z,96336.31
2023-03-03T10:14:02.833Z,96342.47
2023-03-03T10:15:23.021Z,96341.41
2023-03-03T10:17:05.381Z,96351.22
2023-03-03T10:18:26.009Z,96338.63
2023-03-03T10:19:51.509Z,96340.03
2023-03-03T10:21:07.659Z,96338.47
2023-03-03T10:22:24.678Z,96337.63
2023-03-03T10:23:46.421Z,96330.16
2023-03-03T10:25:16.423Z,96333.34
2023-03-03T10:26:45.554Z,96328.69
2023-03-03T10:28:12.905Z,96328.47
2023-03-03T10:29:35.752Z,96332.13
2023-03-03T10:31:04.756Z,96331.53
2023-03-03T10:32:34.114Z,96332.22
2023-03-03T10:33:52.859Z,96332.53
2023-03-03T10:35:22.355Z,96338.47
2023-03-03T10:36:49.842Z,96335.56
2023-03-03T10:38:15.146Z,96336.94
2023-03-03T10:39:36.367Z,96329.16
2023-03-03T10:40:46.059Z,96335.16
2023-03-03T10:42:04.610Z,96327.97
2023-03-03T10:43:32.119Z,96322.78
2023-03-03T10:44:54.511Z,96319.03
2023-03-03T10:46:08.853Z,96325.94
2023-03-03T10:47:39.201Z,96315.91
2023-03-03T10:49:05.454Z,96313.63
2023-03-03T10:50:20.835Z,96310.94
2023-03-03T10:51:41.611Z,96317.56
2023-03-03T10:53:01.460Z,96314.22
2023-03-03T10:54:21.377Z,96312.59
2023-03-03T10:56:03.952Z,96314.34
2023-03-03T10:57:29.576Z,96317.94
2023-03-03T11:00:06.078Z,96318.94
2023-03-03T11:01:24.508Z,96313.72
2023-03-03T11:02:58.471Z,96312.41
2023-03-03T11:04:23.795Z,96314.94
2023-03-03T11:05:49.185Z,96312.53
2023-03-03T11:07:09.821Z,96313.53
2023-03-03T11:08:20.709Z,96318.56
2023-03-03T11:09:49.840Z,96318.38
2023-03-03T11:11:08.483Z,96324.88
2023-03-03T11:12:33.530Z,96331.03
2023-03-03T11:13:48.618Z,96328.72
2023-03-03T11:15:00.771Z,96328.28
2023-03-03T11:16:28.944Z,96330.34
2023-03-03T11:17:57.166Z,96329.94
2023-03-03T11:19:38.371Z,96336.25
2023-03-03T11:20:51.128Z,96333.03
2023-03-03T11:22:14.123Z,96326.75
2023-03-03T11:23:51.179Z,96338.19
2023-03-03T11:25:18.432Z,96334.31
2023-03-03T11:26:39.890Z,96331.66
2023-03-03T11:28:16.698Z,96327.63
2023-03-03T11:29:43.442Z,96318.88
2023-03-03T11:31:04.585Z,96326.91
2023-03-03T11:32:23.702Z,96324.44
2023-03-03T11:33:56.596Z,96334.31
2023-03-03T11:35:19.498Z,96330.25
2023-03-03T11:36:37.868Z,96325.63
2023-03-03T11:37:58.512Z,96326.38
2023-03-03T11:39:10.157Z,96329.38
2023-03-03T11:40:26.002Z,96331.97
2023-03-03T11:41:41.438Z,96339.03
2023-03-03T11:43:06.271Z,96319.59
2023-03-03T11:44:24.484Z,96324.72
2023-03-03T11:45:37.815Z,96318.94
2023-03-03T11:46:50.950Z,96328.03
2023-03-03T11:48:10.515Z,96325.00
2023-03-03T11:49:18.286Z,96313.34
2023-03-03T11:50:38.955Z,96317.16
2023-03-03T11:51:54.030Z,96316.88
2023-03-03T11:53:22.156Z,96319.44
2023-03-03T11:54:45.038Z,96319.00
2023-03-03T11:55:58.418Z,96310.53
2023-03-03T11:57:17.357Z,96316.00
2023-03-03T11:58:28.433Z,96312.59
2023-03-03T11:59:58.917Z,96311.09
2023-03-03T12:01:09.676Z,96299.56
2023-03-03T12:02:29.652Z,96299.56
2023-03-03T12:03:38.931Z,96298.28
2023-03-03T12:04:45.211Z,96310.00
2023-03-03T12:05:58.809Z,96301.41
2023-03-03T12:07:20.652Z,96295.28
2023-03-03T12:08:48.515Z,96296.69
2023-03-03T12:10:02.522Z,96290.69
2023-03-03T12:11:12.814Z,96293.47
2023-03-03T12:12:19.448Z,96291.66
2023-03-03T12:13:32.122Z,96286.19
2023-03-03T12:14:54.150Z,96280.16
2023-03-03T12:16:03.609Z,96286.19
2023-03-03T12:17:19.803Z,96284.19
2023-03-03T12:18:54.096Z,96279.41
2023-03-03T12:20:07.428Z,96276.34
2023-03-03T12:21:35.883Z,96273.16
2023-03-03T12:23:05.932Z,96284.63
2023-03-03T12:24:29.973Z,96279.84
2023-03-03T12:25:40.634Z,96283.41
2023-03-03T12:26:51.391Z,96275.28
2023-03-03T12:28:03.936Z,96277.06
2023-03-03T12:29:13.426Z,96281.44
2023-03-03T12:30:29.210Z,96266.72
2023-03-03T12:31:47.931Z,96271.34
2023-03-03T12:33:08.282Z,96271.06
2023-03-03T12:34:21.661Z,96269.19
2023-03-03T12:35:35.218Z,96267.69
2023-03-03T12:36:59.581Z,96264.16
2023-03-03T12:38:16.539Z,96268.47
2023-03-03T12:39:45.938Z,96265.38
2023-03-03T12:41:00.797Z,96266.91
2023-03-03T12:42:43.300Z,96259.88
2023-03-03T12:44:01.640Z,96267.13
2023-03-03T12:45:27.620Z,96261.72
2023-03-03T12:46:47.101Z,96257.94
2023-03-03T12:47:52.593Z,96252.38
2023-03-03T12:48:57.920Z,96253.16
2023-03-03T12:50:19.900Z,96253.66
2023-03-03T12:51:31.796Z,96258.19
2023-03-03T12:52:48.099Z,96254.03
2023-03-03T12:54:37.009Z,96256.50
2023-03-03T12:58:38.735Z,96253.88
2023-03-03T12:59:56.031Z,96262.97
2023-03-03T13:01:09.358Z,96253.16
2023-03-03T13:02:49.513Z,96260.28
2023-03-03T13:04:07.774Z,96261.31
2023-03-03T13:05:25.268Z,96253.78
2023-03-03T13:06:30.771Z,96258.88
2023-03-03T13:07:46.342Z,96259.59
2023-03-03T13:09:09.523Z,96250.34
2023-03-03T13:10:24.065Z,96269.59
2023-03-03T13:11:43.608Z,96267.63
2023-03-03T13:12:54.242Z,96267.25
2023-03-03T13:14:08.085Z,96262.75
2023-03-03T13:15:31.936Z,96267.44
2023-03-03T13:16:41.794Z,96271.13
2023-03-03T13:18:00.319Z,96268.22
2023-03-03T13:19:10.715Z,96264.75
2023-03-03T13:20:24.123Z,96262.69
2023-03-03T13:21:35.728Z,96259.03
2023-03-03T13:22:40.404Z,96250.19
2023-03-03T13:23:54.148Z,96247.50
2023-03-03T13:25:03.605Z,96248.53
2023-03-03T13:26:14.752Z,96239.81
2023-03-03T13:27:24.492Z,96250.66
2023-03-03T13:28:43.984Z,96241.78
2023-03-03T13:29:57.400Z,96246.66
2023-03-03T13:31:09.309Z,96245.03
2023-03-03T13:32:22.753Z,96244.03
2023-03-03T13:33:30.845Z,96245.91
2023-03-03T13:34:46.154Z,96242.38
2023-03-03T13:35:57.803Z,96241.50
2023-03-03T13:37:04.676Z,96251.41
2023-03-03T13:38:17.866Z,96250.63
2023-03-03T13:39:26.418Z,96240.44
2023-03-03T13:40:37.478Z,96233.13
2023-03-03T13:41:49.459Z,96237.09
2023-03-03T13:43:03.480Z,96236.97